Time;durP1;ratioP1;P1;durP2;ratioP2;P2;SDS_P1;SDS_P2;PMS_P1;PMS_P2;Temp;Humidity;BMP_temperature;BMP_pressure;BME280_temperature;BME280_humidity;BME280_pressure;Samples;Min_cycle;Max_cycle;Signal;HPM_P1;HPM_P2
2022/10/30 00:00:29;;;;;;;23.10;11.73;;;;;;;11.21;59.48;101583.78;5014346;28;20486;-73
2022/10/30 00:02:55;;;;;;;19.67;11.00;;;;;;;11.18;59.16;101577.81;5026923;28;20638;-72
2022/10/30 00:05:20;;;;;;;23.98;11.48;;;;;;;11.16;59.91;101584.84;5010942;28;20041;-73
2022/10/30 00:07:49;;;;;;;21.35;11.10;;;;;;;11.15;59.88;101581.38;5023440;28;20046;-73
2022/10/30 00:10:18;;;;;;;24.27;10.98;;;;;;;11.16;60.34;101577.00;5027924;28;20425;-75
2022/10/30 00:12:44;;;;;;;18.13;11.40;;;;;;;11.19;59.73;101576.91;5026025;28;20041;-74
2022/10/30 00:15:10;;;;;;;20.83;11.65;;;;;;;11.16;59.79;101574.38;5029202;28;20052;-74
2022/10/30 00:17:36;;;;;;;19.30;11.10;;;;;;;11.15;60.21;101575.28;5008703;28;20033;-74
2022/10/30 00:20:02;;;;;;;17.83;11.35;;;;;;;11.19;59.99;101567.28;5029259;28;20040;-73
2022/10/30 00:22:27;;;;;;;16.95;10.57;;;;;;;11.24;59.89;101564.50;5025784;28;20049;-72
2022/10/30 00:24:53;;;;;;;20.00;10.73;;;;;;;11.29;60.05;101562.63;5029752;28;20056;-72
2022/10/30 00:27:18;;;;;;;19.65;10.75;;;;;;;11.30;60.63;101560.88;5024094;28;20049;-72
2022/10/30 00:29:44;;;;;;;17.45;9.95;;;;;;;11.30;59.78;101553.84;5013550;28;20112;-72
2022/10/30 00:32:09;;;;;;;22.48;11.00;;;;;;;11.22;59.77;101551.50;5011229;28;20097;-72
2022/10/30 00:34:35;;;;;;;26.23;9.90;;;;;;;11.19;59.68;101551.59;4997297;28;20622;-72
2022/10/30 00:37:00;;;;;;;16.98;8.90;;;;;;;11.15;59.06;101549.09;5027031;28;20056;-72
2022/10/30 00:39:26;;;;;;;19.20;9.00;;;;;;;11.12;59.38;101554.44;5015554;28;20675;-73
2022/10/30 00:41:51;;;;;;;17.58;8.63;;;;;;;11.08;59.07;101558.06;5008799;28;20084;-73
2022/10/30 00:44:51;;;;;;;20.75;9.45;;;;;;;10.96;59.04;101559.31;5024980;28;20037;-73
2022/10/30 00:47:39;;;;;;;20.83;9.45;;;;;;;10.93;59.13;101565.50;5014749;28;20140;-74
2022/10/30 00:50:11;;;;;;;13.52;9.30;;;;;;;10.91;59.06;101567.28;5029276;28;20040;-71
2022/10/30 00:52:51;;;;;;;17.05;9.50;;;;;;;10.86;59.05;101569.22;5006941;28;20052;-73
2022/10/30 00:55:23;;;;;;;17.48;8.45;;;;;;;10.84;58.93;101565.78;5027292;28;20036;-73
2022/10/30 00:57:49;;;;;;;;;;;;;;;10.81;59.16;101565.81;5024939;28;20048;-73
2022/10/30 01:00:17;;;;;;;23.02;10.35;;;;;;;10.77;59.32;101569.41;5044070;28;20221;-74
2022/10/30 01:02:43;;;;;;;18.30;9.00;;;;;;;10.79;59.62;101565.00;5025999;28;20053;-73
2022/10/30 01:05:14;;;;;;;16.02;10.63;;;;;;;10.88;59.67;101574.38;5024767;28;20060;-73
2022/10/30 01:07:40;;;;;;;19.10;9.75;;;;;;;10.90;59.42;101576.03;5007984;28;20120;-74
2022/10/30 01:10:07;;;;;;;18.10;10.30;;;;;;;10.86;59.31;101569.22;5028551;28;20041;-74
2022/10/30 01:12:32;;;;;;;16.35;10.60;;;;;;;10.89;59.50;101579.56;5011187;28;20056;-73
2022/10/30 01:15:00;;;;;;;25.00;10.95;;;;;;;10.84;59.23;101571.00;5009122;28;20036;-73
2022/10/30 01:17:47;;;;;;;21.73;10.50;;;;;;;10.79;59.91;101572.84;5026334;28;20050;-73
2022/10/30 01:20:56;;;;;;;20.75;10.52;;;;;;;10.98;60.11;101584.50;5002354;28;20061;-75
2022/10/30 01:23:40;;;;;;;19.67;10.30;;;;;;;11.03;59.60;101577.38;4954806;28;20033;-73
2022/10/30 01:26:37;;;;;;;12.85;9.20;;;;;;;11.05;59.34;101574.72;5010911;28;20033;-72
2022/10/30 01:29:30;;;;;;;30.23;11.13;;;;;;;11.07;59.79;101577.28;5009292;28;20474;-72
2022/10/30 01:32:16;;;;;;;21.35;9.00;;;;;;;11.09;59.52;101576.34;5008901;28;22073;-72
2022/10/30 01:34:50;;;;;;;16.52;8.95;;;;;;;11.07;59.33;101579.91;5023104;28;20375;-71
2022/10/30 01:37:23;;;;;;;22.10;10.13;;;;;;;11.01;59.56;101573.09;5000477;28;20145;-72
2022/10/30 01:39:49;;;;;;;24.80;10.02;;;;;;;10.94;59.27;101575.03;5027305;28;20115;-72
2022/10/30 01:42:36;;;;;;;17.65;9.60;;;;;;;10.95;59.55;101576.78;5007515;28;20045;-71
2022/10/30 01:45:02;;;;;;;14.50;9.13;;;;;;;10.92;59.34;101574.22;5009475;28;20037;-72
2022/10/30 01:47:44;;;;;;;20.38;10.35;;;;;;;10.77;60.56;101569.41;5025654;28;20401;-71
2022/10/30 01:50:46;;;;;;;18.92;10.73;;;;;;;10.89;59.45;101566.47;5016828;28;20029;-71
2022/10/30 01:53:41;;;;;;;17.77;8.75;;;;;;;10.95;59.39;101560.19;4994134;28;20173;-72
2022/10/30 01:56:36;;;;;;;15.23;8.13;;;;;;;10.82;59.71;101562.34;5007975;28;20076;-73
2022/10/30 01:59:06;;;;;;;15.00;9.70;;;;;;;10.78;59.53;101550.22;5024987;28;20040;-71
2022/10/30 02:01:34;;;;;;;23.02;10.93;;;;;;;10.81;59.66;101555.34;4999256;28;20037;-70
2022/10/30 02:04:01;;;;;;;13.45;8.45;;;;;;;10.77;59.51;101551.13;4991918;28;20053;-71
2022/10/30 02:06:27;;;;;;;21.05;8.70;;;;;;;10.81;59.26;101553.63;5007235;28;20602;-71
2022/10/30 02:08:55;;;;;;;17.58;8.43;;;;;;;10.76;59.61;101549.41;5016135;28;20091;-70
2022/10/30 02:11:23;;;;;;;18.27;8.85;;;;;;;10.73;59.54;101552.13;5011943;28;20039;-71
2022/10/30 02:13:52;;;;;;;16.65;8.45;;;;;;;10.75;59.57;101558.16;5024204;28;20546;-74
2022/10/30 02:16:17;;;;;;;14.15;9.32;;;;;;;10.70;59.65;101552.22;5027666;28;20056;-75
2022/10/30 02:18:43;;;;;;;15.82;8.68;;;;;;;10.71;59.59;101556.56;5016507;28;20979;-75
2022/10/30 02:21:08;;;;;;;17.90;8.52;;;;;;;10.72;59.38;101566.94;4997300;28;20041;-74
2022/10/30 02:23:36;;;;;;;17.73;7.97;;;;;;;10.67;59.06;101566.22;5007174;28;20095;-75
2022/10/30 02:26:02;;;;;;;13.43;7.25;;;;;;;10.60;59.26;101570.78;5015000;28;20453;-70
2022/10/30 02:28:28;;;;;;;17.42;9.75;;;;;;;10.57;59.38;101573.50;5020416;28;20512;-71
2022/10/30 02:30:53;;;;;;;16.42;8.40;;;;;;;10.60;59.56;101568.16;5019657;28;20044;-71
2022/10/30 02:33:19;;;;;;;19.65;9.05;;;;;;;10.62;59.76;101573.38;5017148;28;20644;-71
2022/10/30 02:35:45;;;;;;;15.00;7.90;;;;;;;10.64;59.43;101567.19;5024956;28;20127;-71
2022/10/30 02:38:11;;;;;;;18.20;9.55;;;;;;;10.67;59.38;101568.84;4997583;28;20262;-71
2022/10/30 02:40:36;;;;;;;19.30;8.43;;;;;;;10.62;59.23;101563.75;5008031;28;20828;-71
2022/10/30 02:43:02;;;;;;;18.02;8.48;;;;;;;10.55;59.52;101566.59;4998331;28;20037;-71
2022/10/30 02:45:28;;;;;;;14.18;8.18;;;;;;;10.57;59.53;101563.03;5008094;28;20112;-71
2022/10/30 02:47:54;;;;;;;14.60;8.63;;;;;;;10.61;59.74;101564.63;5010127;28;20391;-72
2022/10/30 02:50:20;;;;;;;17.02;8.65;;;;;;;10.58;60.74;101559.50;4993972;28;20021;-73
2022/10/30 02:52:45;;;;;;;23.48;8.40;;;;;;;10.70;59.83;101566.13;5009998;28;20110;-71
2022/10/30 02:55:11;;;;;;;17.88;8.63;;;;;;;10.77;59.78;101558.97;4997858;28;20576;-71
2022/10/30 02:57:37;;;;;;;16.50;8.73;;;;;;;10.77;60.10;101556.34;4994505;28;20029;-73
2022/10/30 03:00:04;;;;;;;17.05;9.95;;;;;;;10.80;59.72;101557.13;5024959;28;20055;-72
2022/10/30 03:02:29;;;;;;;29.30;9.25;;;;;;;10.89;60.47;101557.78;5008229;28;20472;-73
2022/10/30 03:04:55;;;;;;;12.00;8.27;;;;;;;10.96;60.02;101568.00;5005683;28;20033;-72
2022/10/30 03:07:20;;;;;;;21.65;9.00;;;;;;;10.91;59.95;101569.91;4999742;28;20048;-71
2022/10/30 03:09:47;;;;;;;21.00;8.82;;;;;;;10.92;60.07;101566.38;4996563;28;20144;-71
2022/10/30 03:12:12;;;;;;;15.98;8.15;;;;;;;11.00;59.84;101561.78;5011074;28;20938;-71
2022/10/30 03:14:38;;;;;;;23.80;9.30;;;;;;;11.02;60.28;101565.22;5013831;28;20033;-71
2022/10/30 03:17:03;;;;;;;17.67;8.75;;;;;;;10.98;60.64;101563.59;5006102;28;20403;-71
2022/10/30 03:19:29;;;;;;;20.02;9.55;;;;;;;11.08;60.10;101564.16;5025301;28;20033;-71
2022/10/30 03:21:54;;;;;;;27.30;8.68;;;;;;;10.88;60.65;101562.13;5021073;28;20075;-71
2022/10/30 03:24:20;;;;;;;15.18;9.30;;;;;;;11.11;59.80;101569.31;5024838;28;20818;-71
2022/10/30 03:26:46;;;;;;;24.38;9.98;;;;;;;11.16;59.61;101572.63;5004598;28;20041;-71
2022/10/30 03:29:12;;;;;;;14.82;7.85;;;;;;;11.19;59.62;101571.66;5024187;28;20037;-71
2022/10/30 03:31:38;;;;;;;19.95;8.52;;;;;;;11.09;59.68;101570.25;5023072;28;20035;-71
2022/10/30 03:34:10;;;;;;;19.98;10.05;;;;;;;10.92;60.85;101576.84;5024366;28;20029;-71
2022/10/30 03:36:36;;;;;;;21.35;8.98;;;;;;;11.05;60.44;101585.19;5014444;28;20029;-71
2022/10/30 03:39:01;;;;;;;26.42;9.18;;;;;;;10.75;61.52;101589.53;5010621;28;20297;-71
2022/10/30 03:41:29;;;;;;;18.88;9.00;;;;;;;10.88;61.23;101583.06;5008142;28;20040;-74
2022/10/30 03:43:55;;;;;;;23.13;8.55;;;;;;;10.71;61.43;101585.31;4997443;28;21461;-73
2022/10/30 03:46:20;;;;;;;16.90;7.85;;;;;;;11.12;60.10;101580.63;5025790;28;20167;-74
2022/10/30 03:48:48;;;;;;;17.30;8.52;;;;;;;11.09;59.65;101580.72;4997141;28;20091;-74
2022/10/30 03:51:14;;;;;;;23.92;9.65;;;;;;;11.24;59.09;101574.97;5007456;28;20045;-73
2022/10/30 03:53:40;;;;;;;16.52;9.77;;;;;;;11.15;59.71;101580.50;5005767;28;20136;-74
2022/10/30 03:56:06;;;;;;;19.05;8.48;;;;;;;11.29;58.52;101575.72;5022625;28;20037;-75
2022/10/30 03:58:40;;;;;;;16.45;8.75;;;;;;;11.13;58.85;101577.97;5008241;28;20426;-74
2022/10/30 04:01:10;;;;;;;16.35;7.85;;;;;;;11.18;58.96;101585.66;4995602;28;20035;-74
2022/10/30 04:03:39;;;;;;;18.38;8.73;;;;;;;11.08;59.45;101590.31;5005082;28;20508;-74
2022/10/30 04:06:07;;;;;;;17.75;9.23;;;;;;;11.19;59.12;101592.59;5012690;28;20444;-74
2022/10/30 04:08:33;;;;;;;16.52;8.35;;;;;;;11.23;58.92;101594.22;5020405;28;20090;-77
2022/10/30 04:11:00;;;;;;;19.15;8.70;;;;;;;11.07;59.50;101598.22;5006033;28;20029;-74
2022/10/30 04:13:28;;;;;;;20.73;8.77;;;;;;;10.95;59.89;101595.06;5020658;28;23151;-74
2022/10/30 04:15:54;;;;;;;26.35;10.35;;;;;;;10.65;60.38;101612.47;5006528;28;20029;-75
2022/10/30 04:18:21;;;;;;;14.80;8.15;;;;;;;11.05;59.26;101599.09;5023578;28;20049;-72
2022/10/30 04:20:49;;;;;;;18.70;8.65;;;;;;;10.57;60.71;101601.38;5008952;28;20030;-73
2022/10/30 04:23:18;;;;;;;18.83;8.73;;;;;;;10.79;60.05;101594.66;5025357;28;20509;-73
2022/10/30 04:25:43;;;;;;;18.33;9.10;;;;;;;10.62;60.62;101600.34;5027085;28;20034;-72
2022/10/30 04:28:10;;;;;;;25.45;7.75;;;;;;;10.95;59.08;101600.31;5009653;28;20480;-72
2022/10/30 04:30:37;;;;;;;27.90;8.77;;;;;;;10.70;59.81;101600.13;5010729;28;20024;-74
2022/10/30 04:33:05;;;;;;;20.42;9.07;;;;;;;10.96;59.06;101591.53;5013059;28;20107;-73
2022/10/30 04:35:35;;;;;;;17.73;7.82;;;;;;;11.10;58.66;101598.97;5010428;28;20032;-74
2022/10/30 04:38:03;;;;;;;15.07;7.88;;;;;;;11.00;58.96;101600.16;5019434;28;20157;-73
2022/10/30 04:40:33;;;;;;;17.67;8.23;;;;;;;11.05;58.57;101601.72;5010981;28;20511;-74
2022/10/30 04:43:03;;;;;;;27.65;9.15;;;;;;;11.16;57.98;101603.16;5009096;28;20033;-73
2022/10/30 04:45:28;;;;;;;16.52;8.15;;;;;;;11.00;58.65;101603.63;5027790;28;20533;-72
2022/10/30 04:48:13;;;;;;;23.23;8.70;;;;;;;11.02;58.34;101599.22;4997748;28;20048;-72
2022/10/30 04:50:40;;;;;;;19.45;8.98;;;;;;;10.80;59.51;101606.81;5026705;28;20581;-72
2022/10/30 04:53:09;;;;;;;13.32;7.63;;;;;;;11.07;58.07;101604.31;5028333;28;20116;-72
2022/10/30 04:55:34;;;;;;;16.42;7.85;;;;;;;11.09;58.26;101601.66;5011708;28;20047;-71
2022/10/30 04:58:03;;;;;;;26.52;8.23;;;;;;;10.90;58.54;101599.56;5027347;28;20128;-71
2022/10/30 05:00:33;;;;;;;18.92;8.40;;;;;;;11.09;58.02;101602.50;5017971;28;20028;-71
2022/10/30 05:03:16;;;;;;;18.35;7.05;;;;;;;10.74;59.35;101600.91;5012150;28;20045;-71
2022/10/30 05:05:42;;;;;;;18.33;7.97;;;;;;;11.10;58.22;101605.97;5001717;28;20029;-71
2022/10/30 05:08:08;;;;;;;18.60;8.23;;;;;;;10.62;59.58;101608.19;5009107;28;20356;-72
2022/10/30 05:10:33;;;;;;;12.60;7.20;;;;;;;11.03;58.58;101597.44;5009235;28;20043;-72
2022/10/30 05:12:59;;;;;;;17.90;7.70;;;;;;;11.09;58.04;101597.25;5008163;28;20037;-74
2022/10/30 05:15:24;;;;;;;19.23;9.57;;;;;;;10.93;58.41;101604.72;5008319;28;20037;-74
2022/10/30 05:17:54;;;;;;;18.70;8.13;;;;;;;10.98;58.23;101602.81;5016972;28;20052;-75
2022/10/30 05:20:20;;;;;;;17.45;7.95;;;;;;;11.08;57.63;101599.91;5010582;28;20502;-71
2022/10/30 05:22:54;;;;;;;14.23;7.55;;;;;;;11.12;57.49;101593.69;5011212;28;20057;-72
2022/10/30 05:25:19;;;;;;;21.20;8.82;;;;;;;10.53;59.31;101600.63;5009315;28;20064;-73
2022/10/30 05:27:45;;;;;;;16.55;8.50;;;;;;;10.58;59.54;101598.72;5015880;28;20095;-76
2022/10/30 05:30:11;;;;;;;15.50;9.02;;;;;;;10.50;59.78;101605.91;5024823;28;20289;-70
2022/10/30 05:32:37;;;;;;;14.60;7.75;;;;;;;10.94;58.15;101603.81;5011206;28;20033;-72
2022/10/30 05:35:02;;;;;;;15.25;6.93;;;;;;;11.03;57.10;101598.28;5025377;28;20064;-74
2022/10/30 05:37:28;;;;;;;21.27;7.47;;;;;;;11.00;56.98;101601.00;5008899;28;20048;-72
2022/10/30 05:39:54;;;;;;;14.10;7.22;;;;;;;10.93;57.03;101602.13;5008500;28;20029;-71
2022/10/30 05:42:27;;;;;;;17.00;7.43;;;;;;;10.85;57.60;101604.09;5024733;28;20513;-71
2022/10/30 05:44:55;;;;;;;13.43;7.68;;;;;;;10.90;57.57;101601.34;5009204;28;20123;-71
2022/10/30 05:47:21;;;;;;;15.30;7.75;;;;;;;10.91;57.04;101603.91;5015157;28;20120;-71
2022/10/30 05:49:50;;;;;;;13.73;6.40;;;;;;;10.86;56.69;101600.59;5007799;28;20559;-73
2022/10/30 05:52:19;;;;;;;14.50;7.43;;;;;;;10.77;56.60;101600.78;5014434;28;20093;-74
2022/10/30 05:54:45;;;;;;;18.02;7.03;;;;;;;10.66;56.87;101603.75;5007244;28;20065;-73
2022/10/30 05:57:19;;;;;;;14.57;8.38;;;;;;;10.61;57.49;101611.69;5017115;28;20130;-76
2022/10/30 05:59:44;;;;;;;16.85;7.57;;;;;;;10.57;57.66;101604.88;4998199;28;20022;-72
2022/10/30 06:02:10;;;;;;;15.32;7.45;;;;;;;10.59;57.78;101612.66;5007468;28;20084;-71
2022/10/30 06:04:35;;;;;;;17.67;6.55;;;;;;;10.69;57.39;101608.03;5016740;28;20574;-73
2022/10/30 06:07:05;;;;;;;14.25;7.53;;;;;;;10.64;57.24;101601.16;5024022;28;20041;-74
2022/10/30 06:09:31;;;;;;;19.45;7.97;;;;;;;10.51;58.31;101610.25;5001177;28;20028;-74
2022/10/30 06:12:16;;;;;;;15.85;7.78;;;;;;;10.61;57.26;101609.06;5022015;28;20046;-75
2022/10/30 06:15:05;;;;;;;16.85;8.65;;;;;;;10.55;57.54;101616.28;5011980;28;20037;-77
2022/10/30 06:17:31;;;;;;;14.20;7.63;;;;;;;10.50;57.29;101603.28;5025110;28;20546;-75
2022/10/30 06:20:22;;;;;;;16.30;7.70;;;;;;;10.50;57.43;101602.44;5023192;28;20045;-72
2022/10/30 06:23:06;;;;;;;22.50;8.68;;;;;;;10.54;57.25;101609.31;5008174;28;20036;-71
2022/10/30 06:25:54;;;;;;;14.10;7.88;;;;;;;10.51;57.16;101610.25;5024011;28;20041;-74
2022/10/30 06:28:33;;;;;;;14.65;7.88;;;;;;;10.51;57.10;101604.19;4980943;28;20045;-69
2022/10/30 06:30:59;;;;;;;15.23;7.65;;;;;;;10.45;57.29;101609.56;5007233;28;20036;-73
2022/10/30 06:33:26;;;;;;;13.18;6.80;;;;;;;10.46;57.20;101617.38;4992508;28;20435;-72
2022/10/30 06:35:52;;;;;;;12.05;6.80;;;;;;;10.50;57.32;101608.53;5006960;28;20589;-73
2022/10/30 06:38:18;;;;;;;12.63;6.72;;;;;;;10.53;57.40;101618.06;5011186;28;20048;-73
2022/10/30 06:40:47;;;;;;;16.45;7.80;;;;;;;10.57;57.61;101614.44;5015125;28;20036;-73
2022/10/30 06:43:44;;;;;;;19.30;8.20;;;;;;;10.64;57.52;101616.84;5003429;28;20065;-70
2022/10/30 06:46:21;;;;;;;15.55;7.35;;;;;;;10.72;57.61;101623.63;5016785;28;20268;-70
2022/10/30 06:48:48;;;;;;;13.15;7.32;;;;;;;10.78;57.69;101619.06;5014628;28;20025;-70
2022/10/30 06:51:15;;;;;;;13.15;7.68;;;;;;;10.86;57.39;101621.50;5024087;28;20060;-71
2022/10/30 06:53:41;;;;;;;17.85;7.80;;;;;;;10.93;57.36;101627.38;5014536;28;20064;-72
2022/10/30 06:56:27;;;;;;;12.82;7.13;;;;;;;10.98;57.01;101630.75;5005554;28;20576;-73
2022/10/30 06:59:04;;;;;;;15.80;8.00;;;;;;;11.00;57.07;101635.03;5008446;28;20254;-73
2022/10/30 07:01:36;;;;;;;16.25;7.95;;;;;;;11.08;56.94;101633.94;5007810;28;20061;-71
2022/10/30 07:04:14;;;;;;;22.35;8.60;;;;;;;11.15;56.79;101641.56;5010294;28;20033;-72
2022/10/30 07:06:42;;;;;;;13.05;7.75;;;;;;;11.16;56.78;101639.81;5016686;28;20025;-75
2022/10/30 07:09:07;;;;;;;17.80;8.30;;;;;;;11.25;56.98;101636.91;4994880;28;20040;-76
2022/10/30 07:11:32;;;;;;;19.00;7.50;;;;;;;11.18;57.11;101638.00;5009551;28;20426;-76
2022/10/30 07:14:02;;;;;;;15.88;8.43;;;;;;;11.13;57.42;101646.00;5010926;28;20044;-75
2022/10/30 07:16:38;;;;;;;15.27;8.23;;;;;;;11.51;56.92;101641.31;4995390;28;20557;-72
2022/10/30 07:19:04;;;;;;;17.00;8.85;;;;;;;11.39;56.76;101647.78;5024591;28;20293;-73
2022/10/30 07:21:30;;;;;;;16.08;7.95;;;;;;;11.79;56.24;101649.16;5008959;28;20033;-73
2022/10/30 07:23:56;;;;;;;20.23;9.07;;;;;;;11.94;56.11;101644.34;5008307;28;20064;-73
2022/10/30 07:26:43;;;;;;;21.48;8.13;;;;;;;12.22;55.37;101654.72;5006473;28;20130;-71
2022/10/30 07:29:32;;;;;;;23.33;8.48;;;;;;;12.19;55.24;101653.06;5024385;28;20040;-72
2022/10/30 07:32:16;;;;;;;22.13;7.88;;;;;;;12.27;54.90;101652.81;5026598;28;20114;-72
2022/10/30 07:35:02;;;;;;;17.33;7.90;;;;;;;11.74;56.54;101661.53;5033692;28;20044;-73
2022/10/30 07:37:54;;;;;;;14.85;7.55;;;;;;;12.33;55.38;101656.97;5021657;28;20044;-73
2022/10/30 07:40:29;;;;;;;12.90;7.47;;;;;;;12.92;53.94;101656.63;5026022;28;20052;-73
2022/10/30 07:43:06;;;;;;;17.70;7.00;;;;;;;14.45;49.95;101665.34;5009456;28;20044;-74
2022/10/30 07:45:59;;;;;;;12.32;6.72;;;;;;;15.45;48.11;101662.56;5006261;28;20429;-73
2022/10/30 07:48:34;;;;;;;12.98;6.78;;;;;;;15.96;46.87;101658.31;5010844;28;20092;-71
2022/10/30 07:51:07;;;;;;;12.65;6.53;;;;;;;16.15;44.80;101658.25;5000919;28;20072;-72
2022/10/30 07:53:33;;;;;;;18.30;7.40;;;;;;;15.32;45.54;101654.41;5007267;28;20051;-75
2022/10/30 07:55:58;;;;;;;15.02;6.60;;;;;;;16.25;46.42;101659.47;4998161;28;20045;-74
2022/10/30 07:58:42;;;;;;;13.60;7.25;;;;;;;14.96;47.84;101656.03;5028642;28;20087;-73
2022/10/30 08:01:28;;;;;;;16.27;6.55;;;;;;;16.06;46.06;101663.97;5029733;28;20178;-71
2022/10/30 08:03:57;;;;;;;14.73;7.05;;;;;;;16.51;44.14;101658.13;5026609;28;20071;-69
2022/10/30 08:06:27;;;;;;;9.90;5.65;;;;;;;16.88;44.69;101656.16;5012823;28;20028;-70
2022/10/30 08:08:52;;;;;;;15.05;6.72;;;;;;;17.06;42.01;101662.22;5012571;28;20524;-73
2022/10/30 08:11:27;;;;;;;13.02;6.70;;;;;;;17.33;42.29;101665.13;5027391;28;20168;-72
2022/10/30 08:13:55;;;;;;;15.57;6.38;;;;;;;17.87;41.54;101670.00;5026101;28;21376;-73
2022/10/30 08:16:21;;;;;;;15.73;6.78;;;;;;;18.04;39.90;101671.66;5015140;28;20033;-72
2022/10/30 08:18:48;;;;;;;13.20;6.65;;;;;;;18.59;40.34;101678.13;5028967;28;20268;-73
2022/10/30 08:21:14;;;;;;;15.93;6.85;;;;;;;17.86;41.19;101679.72;5051962;28;20052;-74
2022/10/30 08:23:52;;;;;;;23.40;7.32;;;;;;;18.62;40.27;101683.22;5016868;28;20041;-72
2022/10/30 08:26:19;;;;;;;16.42;7.32;;;;;;;18.37;40.13;101684.72;5039046;28;20045;-71
2022/10/30 08:28:44;;;;;;;12.18;6.10;;;;;;;18.81;38.82;101682.91;5029454;28;20056;-71
2022/10/30 08:31:11;;;;;;;17.48;8.60;;;;;;;18.93;40.05;101676.06;5046811;28;20029;-71
2022/10/30 08:33:55;;;;;;;11.60;6.22;;;;;;;19.97;37.21;101671.94;5037233;28;20048;-74
2022/10/30 08:36:26;;;;;;;11.15;6.57;;;;;;;19.42;38.19;101676.41;5036199;28;20025;-74
2022/10/30 08:38:52;;;;;;;14.80;5.70;;;;;;;20.22;38.11;101683.56;5025233;28;20047;-73
2022/10/30 08:41:38;;;;;;;9.07;6.10;;;;;;;20.15;38.26;101688.41;5032085;28;20032;-74
2022/10/30 08:44:04;;;;;;;10.38;6.18;;;;;;;19.81;38.63;101689.81;5044925;28;20032;-71
2022/10/30 08:46:45;;;;;;;12.40;6.50;;;;;;;19.18;39.38;101691.22;5024096;28;20592;-74
2022/10/30 08:49:11;;;;;;;15.23;5.63;;;;;;;18.81;39.92;101689.09;5008548;28;20114;-75
2022/10/30 08:51:43;;;;;;;14.55;6.80;;;;;;;18.84;41.39;101688.88;5006720;28;20090;-75
2022/10/30 08:54:09;;;;;;;14.65;6.80;;;;;;;18.58;40.65;101689.63;5008277;28;20444;-74
2022/10/30 08:56:35;;;;;;;15.73;7.22;;;;;;;18.29;41.78;101700.19;5010177;28;20029;-75
2022/10/30 08:59:08;;;;;;;13.38;6.65;;;;;;;18.43;42.38;101689.63;5026841;28;20017;-75
2022/10/30 09:01:35;;;;;;;15.15;7.07;;;;;;;18.59;41.77;101688.72;5004171;28;20090;-74
2022/10/30 09:04:19;;;;;;;15.65;7.13;;;;;;;18.45;41.57;101695.69;5008430;28;20037;-75
2022/10/30 09:07:02;;;;;;;14.38;5.88;;;;;;;18.60;41.90;101688.59;5027068;28;20520;-74
2022/10/30 09:10:04;;;;;;;19.27;6.82;;;;;;;19.04;40.39;101690.31;5027572;28;20045;-76
2022/10/30 09:12:32;;;;;;;12.25;6.00;;;;;;;19.12;40.81;101695.09;4998604;28;20123;-77
2022/10/30 09:14:59;;;;;;;15.57;6.38;;;;;;;19.34;39.64;101699.03;5016551;28;20441;-75
2022/10/30 09:17:25;;;;;;;18.27;6.93;;;;;;;19.19;41.15;101699.09;5007256;28;20033;-75
2022/10/30 09:19:51;;;;;;;14.60;7.65;;;;;;;19.73;39.22;101694.78;5005893;28;20505;-75
2022/10/30 09:22:24;;;;;;;16.77;6.40;;;;;;;18.66;40.93;101697.97;5005965;28;20037;-74
2022/10/30 09:24:49;;;;;;;15.55;6.95;;;;;;;18.56;41.06;101699.47;4997768;28;20035;-74
2022/10/30 09:27:38;;;;;;;21.00;7.57;;;;;;;17.45;44.21;101703.25;5023318;28;20065;-74
2022/10/30 09:30:06;;;;;;;9.52;6.50;;;;;;;18.41;42.59;101707.41;5009301;28;20037;-75
2022/10/30 09:32:35;;;;;;;15.20;7.03;;;;;;;17.88;42.31;101714.03;5006532;28;20151;-75
2022/10/30 09:35:07;;;;;;;22.42;7.65;;;;;;;17.84;43.48;101717.78;4992832;28;20090;-74
2022/10/30 09:37:38;;;;;;;14.13;5.97;;;;;;;18.56;42.12;101715.34;5006514;28;20045;-75
2022/10/30 09:40:16;;;;;;;21.08;7.50;;;;;;;18.78;42.23;101721.03;5017616;28;20059;-74
2022/10/30 09:42:44;;;;;;;15.32;7.13;;;;;;;17.48;44.19;101721.59;5006290;28;20537;-74
2022/10/30 09:45:51;;;;;;;12.90;6.80;;;;;;;18.13;43.85;101723.19;4988982;28;20144;-74
2022/10/30 09:48:29;;;;;;;21.38;8.25;;;;;;;18.81;41.42;101715.56;4995674;28;20279;-74
2022/10/30 09:51:16;;;;;;;13.13;6.15;;;;;;;19.50;40.85;101718.31;5007938;28;20670;-74
2022/10/30 09:54:10;;;;;;;18.23;5.88;;;;;;;19.51;40.03;101720.88;5022691;28;20041;-75
2022/10/30 09:56:46;;;;;;;20.45;6.78;;;;;;;18.77;41.88;101718.50;5007718;28;20039;-75
2022/10/30 09:59:41;;;;;;;20.15;6.95;;;;;;;19.39;41.18;101710.19;5023862;28;20037;-75
2022/10/30 10:02:17;;;;;;;13.85;7.13;;;;;;;19.72;40.37;101712.47;5006338;28;20560;-74
2022/10/30 10:04:47;;;;;;;13.45;6.30;;;;;;;20.16;40.02;101705.16;5003898;28;20055;-74
2022/10/30 10:07:24;;;;;;;13.50;5.88;;;;;;;20.10;38.88;101706.41;5025891;28;20753;-75
2022/10/30 10:10:03;;;;;;;15.82;6.82;;;;;;;20.67;38.98;101711.38;5002886;28;20040;-74
2022/10/30 10:12:45;;;;;;;14.38;6.15;;;;;;;20.22;39.91;101710.09;5005650;28;20048;-75
2022/10/30 10:15:19;;;;;;;17.77;7.28;;;;;;;20.37;38.83;101718.81;5021600;28;20042;-74
2022/10/30 10:17:45;;;;;;;16.52;6.30;;;;;;;20.73;39.35;101716.28;5008260;28;20679;-75
2022/10/30 10:20:32;;;;;;;7.82;5.75;;;;;;;21.33;38.95;101721.78;5019476;28;20095;-75
2022/10/30 10:23:02;;;;;;;14.05;6.13;;;;;;;21.32;37.19;101712.97;5022222;28;20075;-74
2022/10/30 10:25:29;;;;;;;17.27;6.80;;;;;;;21.36;37.73;101709.13;5007722;28;20033;-75
2022/10/30 10:28:13;;;;;;;9.65;5.30;;;;;;;21.62;37.10;101709.03;5002874;28;20040;-75
2022/10/30 10:30:59;;;;;;;7.95;5.68;;;;;;;21.69;36.72;101714.75;5018781;28;20033;-76
2022/10/30 10:33:31;;;;;;;13.63;6.40;;;;;;;22.08;37.42;101710.94;5003056;28;20116;-75
2022/10/30 10:36:00;;;;;;;;;;;;;;;21.93;35.50;101709.41;5019728;28;20120;-75
2022/10/30 10:39:03;;;;;;;15.90;5.75;;;;;;;22.07;37.26;101708.38;5019790;28;19978;-74
2022/10/30 10:41:46;;;;;;;11.32;6.55;;;;;;;22.27;35.93;101709.53;5021886;28;20572;-74
2022/10/30 10:44:20;;;;;;;14.43;5.80;;;;;;;22.07;36.11;101713.69;5022444;28;20259;-75
2022/10/30 10:47:14;;;;;;;10.68;5.70;;;;;;;21.73;37.02;101701.09;5003549;28;20040;-75
2022/10/30 10:49:53;;;;;;;14.43;6.38;;;;;;;20.71;39.03;101702.25;5019646;28;20068;-75
2022/10/30 10:52:41;;;;;;;11.30;5.88;;;;;;;21.77;37.28;101707.06;4997392;28;20045;-75
2022/10/30 10:55:17;;;;;;;11.68;5.65;;;;;;;22.17;36.90;101702.25;5023791;28;20167;-74
2022/10/30 10:57:45;;;;;;;9.65;5.32;;;;;;;22.12;36.53;101696.44;5020703;28;20047;-74
2022/10/30 11:00:15;;;;;;;8.20;4.32;;;;;;;22.17;36.80;101696.94;5003544;28;20037;-74
2022/10/30 11:02:43;;;;;;;15.38;6.22;;;;;;;22.22;35.95;101698.41;5009991;28;20617;-74
2022/10/30 11:05:35;;;;;;;13.48;5.53;;;;;;;22.06;36.74;101696.03;5004043;28;20131;-74
2022/10/30 11:08:18;;;;;;;11.75;5.05;;;;;;;22.42;35.65;101696.84;5020425;28;20041;-75
2022/10/30 11:10:49;;;;;;;13.40;5.07;;;;;;;22.47;35.80;101698.22;5020392;28;20067;-74
2022/10/30 11:13:14;;;;;;;15.13;4.33;;;;;;;22.52;35.01;101698.69;5004885;28;20525;-75
2022/10/30 11:16:07;;;;;;;10.25;4.07;;;;;;;22.80;35.57;101696.53;5021599;28;20284;-75
2022/10/30 11:18:33;;;;;;;13.85;4.80;;;;;;;22.87;35.69;101687.06;5022586;28;20045;-75
2022/10/30 11:21:08;;;;;;;9.32;4.03;;;;;;;22.91;35.46;101685.84;5020891;28;20516;-76
2022/10/30 11:23:45;;;;;;;11.57;4.05;;;;;;;23.18;34.59;101690.78;5019889;28;20503;-75
2022/10/30 11:26:16;;;;;;;9.95;3.60;;;;;;;23.34;34.13;101692.22;5003532;28;20403;-74
2022/10/30 11:28:47;;;;;;;10.07;4.18;;;;;;;23.07;35.53;101695.28;5021079;28;20048;-74
2022/10/30 11:31:20;;;;;;;9.27;4.30;;;;;;;22.64;35.07;101706.69;5022403;28;20040;-75
2022/10/30 11:33:47;;;;;;;13.02;4.53;;;;;;;22.45;35.61;101702.81;5007223;28;20060;-75
2022/10/30 11:36:18;;;;;;;15.65;5.20;;;;;;;22.17;36.48;101696.94;5012259;28;20067;-75
2022/10/30 11:38:44;;;;;;;12.20;4.40;;;;;;;22.39;36.42;101692.63;5005570;28;20040;-75